createdAt,value
2023-05-10T00:01:37.688Z,1.00
2023-05-10T00:04:06.691Z,1.00
2023-05-10T00:06:35.242Z,1.00
2023-05-10T00:09:15.839Z,1.00
2023-05-10T00:11:44.489Z,1.00
2023-05-10T00:14:13.466Z,1.00
2023-05-10T00:16:43.707Z,1.00
2023-05-10T00:19:12.422Z,1.00
2023-05-10T00:22:05.320Z,1.00
2023-05-10T00:24:38.364Z,1.00
2023-05-10T00:27:15.776Z,1.00
2023-05-10T00:29:44.417Z,1.00
2023-05-10T00:32:15.947Z,1.00
2023-05-10T00:34:45.340Z,1.00
2023-05-10T00:37:17.027Z,1.00
2023-05-10T00:39:54.762Z,99.90
2023-05-10T00:42:30.185Z,99.90
2023-05-10T00:45:03.898Z,99.90
2023-05-10T00:47:34.763Z,99.90
2023-05-10T00:50:09.244Z,99.90
2023-05-10T00:52:46.877Z,99.90
2023-05-10T00:55:18.285Z,99.90
2023-05-10T00:57:51.906Z,63.90
2023-05-10T01:00:21.989Z,6.20
2023-05-10T01:02:55.882Z,1.00
2023-05-10T01:05:26.868Z,1.00
2023-05-10T01:07:57.526Z,1.00
2023-05-10T01:10:33.940Z,1.00
2023-05-10T01:13:16.043Z,1.00
2023-05-10T01:15:48.545Z,1.00
2023-05-10T01:18:23.687Z,1.00
2023-05-10T01:21:13.450Z,1.00
2023-05-10T01:24:22.111Z,1.00
2023-05-10T01:27:25.488Z,1.00
2023-05-10T01:30:35.735Z,1.00
2023-05-10T01:33:17.341Z,1.00
2023-05-10T01:36:07.684Z,1.00
2023-05-10T01:38:47.810Z,1.00
2023-05-10T01:41:24.363Z,1.00
2023-05-10T01:44:18.745Z,1.00
2023-05-10T01:46:53.073Z,1.00
2023-05-10T01:49:29.803Z,5.20
2023-05-10T01:52:03.935Z,1.00
2023-05-10T01:54:37.500Z,1.00
2023-05-10T01:57:10.992Z,1.00
2023-05-10T01:59:48.901Z,1.00
2023-05-10T02:02:23.265Z,1.00
2023-05-10T02:04:59.484Z,1.00
2023-05-10T02:07:51.464Z,1.00
2023-05-10T02:10:22.678Z,1.00
2023-05-10T02:12:54.806Z,1.00
2023-05-10T02:15:29.853Z,1.00
2023-05-10T02:18:01.386Z,1.00
2023-05-10T02:20:47.434Z,1.00
2023-05-10T02:23:19.809Z,1.00
2023-05-10T02:25:51.844Z,1.00
2023-05-10T02:28:23.695Z,1.00
2023-05-10T02:30:58.246Z,1.00
2023-05-10T02:33:40.536Z,1.00
2023-05-10T02:36:14.733Z,1.00
2023-05-10T02:38:46.727Z,1.00
2023-05-10T02:41:23.909Z,1.00
2023-05-10T02:43:55.533Z,1.00
2023-05-10T02:46:31.712Z,1.00
2023-05-10T02:49:01.712Z,1.00
2023-05-10T02:51:43.178Z,1.00
2023-05-10T02:54:19.187Z,1.00
2023-05-10T02:57:04.059Z,1.00
2023-05-10T02:59:42.339Z,1.00
2023-05-10T03:02:12.982Z,1.00
2023-05-10T03:04:45.959Z,1.00
2023-05-10T03:07:16.122Z,1.00
2023-05-10T03:09:46.360Z,1.00
2023-05-10T03:12:25.924Z,1.00
2023-05-10T03:15:03.930Z,1.00
2023-05-10T03:17:39.605Z,1.00
2023-05-10T03:20:18.979Z,1.00
2023-05-10T03:23:00.503Z,1.00
2023-05-10T03:25:33.448Z,1.00
2023-05-10T03:28:05.678Z,1.00
2023-05-10T03:30:37.786Z,1.00
2023-05-10T03:33:11.884Z,1.00
2023-05-10T03:35:47.872Z,1.00
2023-05-10T03:38:20.692Z,1.00
2023-05-10T03:40:50.412Z,1.00
2023-05-10T03:43:27.895Z,1.00
2023-05-10T03:46:00.671Z,1.00
2023-05-10T03:48:33.417Z,1.00
2023-05-10T03:51:11.961Z,1.00
2023-05-10T03:53:45.581Z,1.00
2023-05-10T03:56:16.911Z,1.00
2023-05-10T03:58:54.673Z,1.00
2023-05-10T04:01:23.338Z,1.00
2023-05-10T04:03:53.358Z,1.00
2023-05-10T04:06:24.224Z,99.90
2023-05-10T04:08:57.223Z,99.90
2023-05-10T04:11:31.880Z,99.90
2023-05-10T04:14:00.343Z,99.90
2023-05-10T04:16:34.050Z,99.90
2023-05-10T04:19:02.575Z,99.90
2023-05-10T04:21:35.008Z,99.90
2023-05-10T04:24:08.934Z,99.90
2023-05-10T04:26:37.692Z,99.90
2023-05-10T04:29:08.721Z,99.90
2023-05-10T04:31:40.820Z,99.90
2023-05-10T04:34:09.429Z,99.90
2023-05-10T04:36:37.976Z,99.90
2023-05-10T04:39:10.721Z,99.90
2023-05-10T04:41:50.611Z,99.90
2023-05-10T04:44:22.206Z,99.90
2023-05-10T04:46:56.722Z,99.90
2023-05-10T04:49:36.334Z,99.90
2023-05-10T04:52:08.469Z,99.90
2023-05-10T04:54:40.397Z,99.90
2023-05-10T04:57:11.679Z,99.90
2023-05-10T04:59:44.171Z,99.90
2023-05-10T05:02:15.424Z,99.90
2023-05-10T05:04:48.385Z,99.90
2023-05-10T05:07:19.447Z,99.90
2023-05-10T05:09:56.534Z,99.90
2023-05-10T05:12:29.651Z,99.90
2023-05-10T05:15:02.100Z,99.90
2023-05-10T05:17:36.964Z,99.90
2023-05-10T05:20:16.106Z,99.90
2023-05-10T05:22:48.251Z,99.90
2023-05-10T05:25:19.680Z,99.90
2023-05-10T05:27:49.632Z,99.90
2023-05-10T05:30:20.302Z,99.90
2023-05-10T05:32:49.260Z,99.90
2023-05-10T05:35:30.710Z,99.90
2023-05-10T05:37:59.409Z,99.90
2023-05-10T05:40:29.903Z,99.90
2023-05-10T05:43:01.606Z,99.90
2023-05-10T05:45:31.770Z,99.90
2023-05-10T05:48:06.882Z,99.90
2023-05-10T05:50:38.725Z,99.90
2023-05-10T05:53:09.368Z,99.90
2023-05-10T05:55:39.412Z,99.90
2023-05-10T05:58:13.951Z,99.90
2023-05-10T06:00:50.331Z,99.90
2023-05-10T06:03:23.799Z,99.90
2023-05-10T06:06:01.496Z,99.90
2023-05-10T06:08:31.538Z,99.90
2023-05-10T06:11:06.609Z,99.90
2023-05-10T06:13:38.338Z,99.90
2023-05-10T06:16:13.772Z,99.90
2023-05-10T06:18:44.608Z,99.90
2023-05-10T06:21:23.422Z,99.90
2023-05-10T06:23:52.023Z,99.90
2023-05-10T06:26:23.559Z,99.90
2023-05-10T06:28:52.211Z,99.90
2023-05-10T06:31:20.827Z,99.90
2023-05-10T06:33:55.313Z,99.90
2023-05-10T06:36:26.136Z,99.90
2023-05-10T06:38:56.038Z,99.90
2023-05-10T06:41:31.504Z,99.90
2023-05-10T06:44:01.903Z,99.90
2023-05-10T06:46:34.338Z,99.90
2023-05-10T06:49:04.966Z,99.90
2023-05-10T06:51:35.656Z,99.90
2023-05-10T06:54:06.772Z,99.90
2023-05-10T06:56:37.997Z,99.90
2023-05-10T06:59:06.681Z,99.90
2023-05-10T07:01:37.787Z,99.90
2023-05-10T07:04:18.996Z,99.90
2023-05-10T07:06:50.723Z,99.90
2023-05-10T07:09:25.552Z,99.90
2023-05-10T07:12:04.405Z,99.90
2023-05-10T07:14:34.192Z,99.90
2023-05-10T07:17:02.891Z,99.90
2023-05-10T07:19:34.263Z,99.90
2023-05-10T07:22:11.603Z,99.90
2023-05-10T07:24:44.448Z,99.90
2023-05-10T07:27:18.802Z,99.90
2023-05-10T07:30:00.771Z,99.90
2023-05-10T07:32:38.555Z,99.90
2023-05-10T07:35:09.084Z,99.90
2023-05-10T07:37:39.410Z,99.90
2023-05-10T07:40:11.475Z,98.80
2023-05-10T07:42:41.455Z,99.90
2023-05-10T07:45:13.615Z,99.90
2023-05-10T07:47:42.279Z,99.50
2023-05-10T07:50:16.655Z,97.00
2023-05-10T07:52:45.271Z,97.80
2023-05-10T07:55:16.393Z,92.40
2023-05-10T07:57:46.401Z,99.90
2023-05-10T08:00:23.286Z,94.20
2023-05-10T08:02:56.095Z,95.60
2023-05-10T08:05:24.729Z,92.10
2023-05-10T08:07:53.155Z,90.50
2023-05-10T08:10:21.852Z,90.70
2023-05-10T08:12:53.376Z,91.50
2023-05-10T08:15:22.170Z,94.60
2023-05-10T08:17:50.633Z,93.70
2023-05-10T08:20:21.758Z,94.30
2023-05-10T08:22:52.111Z,92.80
2023-05-10T08:25:23.571Z,93.20
2023-05-10T08:27:55.074Z,95.60
2023-05-10T08:30:23.783Z,90.70
2023-05-10T08:32:56.937Z,85.20
2023-05-10T08:35:29.941Z,90.10
2023-05-10T08:37:58.643Z,89.60
2023-05-10T08:40:28.400Z,90.50
2023-05-10T08:43:08.210Z,92.80
2023-05-10T08:45:41.777Z,95.30
2023-05-10T08:48:13.381Z,92.80
2023-05-10T08:50:44.061Z,91.20
2023-05-10T08:53:17.042Z,85.60
2023-05-10T08:55:45.723Z,85.70
2023-05-10T08:58:16.181Z,86.10
2023-05-10T09:00:49.310Z,83.10
2023-05-10T09:03:20.682Z,84.80
2023-05-10T09:06:00.759Z,88.40
2023-05-10T09:08:33.147Z,89.10
2023-05-10T09:11:06.696Z,91.40
2023-05-10T09:13:38.675Z,90.70
2023-05-10T09:16:21.899Z,88.20
2023-05-10T09:18:54.768Z,88.70
2023-05-10T09:21:23.425Z,83.00
2023-05-10T09:23:55.421Z,84.20
2023-05-10T09:26:26.557Z,81.50
2023-05-10T09:28:59.232Z,83.30
2023-05-10T09:31:47.552Z,84.70
2023-05-10T09:34:30.500Z,77.20
2023-05-10T09:37:02.547Z,74.80
2023-05-10T09:39:37.773Z,97.00
2023-05-10T09:42:08.691Z,83.60
2023-05-10T09:44:42.157Z,86.20
2023-05-10T09:47:19.276Z,78.90
2023-05-10T09:49:57.542Z,81.40
2023-05-10T09:52:28.369Z,80.40
2023-05-10T09:54:57.336Z,79.20
2023-05-10T09:57:28.795Z,93.90
2023-05-10T10:00:06.115Z,78.80
2023-05-10T10:02:42.326Z,80.10
2023-05-10T10:05:14.499Z,78.90
2023-05-10T10:07:43.403Z,82.70
2023-05-10T10:10:13.668Z,79.80
2023-05-10T10:12:43.516Z,89.80
2023-05-10T10:15:16.928Z,84.10
2023-05-10T10:17:46.294Z,81.80
2023-05-10T10:20:16.648Z,87.00
2023-05-10T10:22:47.908Z,82.20
2023-05-10T10:25:21.248Z,83.80
2023-05-10T10:28:08.011Z,82.00
2023-05-10T10:30:48.531Z,92.70
2023-05-10T10:33:50.113Z,87.10
2023-05-10T10:36:21.353Z,89.40
2023-05-10T10:39:01.912Z,80.50
2023-05-10T10:41:35.617Z,88.80
2023-05-10T10:44:27.195Z,89.70
2023-05-10T10:47:09.705Z,90.70
2023-05-10T10:49:44.855Z,90.10
2023-05-10T10:52:36.921Z,86.70
2023-05-10T10:55:09.465Z,84.00
2023-05-10T10:57:52.882Z,88.30
2023-05-10T11:00:35.619Z,82.90
2023-05-10T11:03:09.589Z,86.20
2023-05-10T11:05:41.388Z,80.80
2023-05-10T11:08:16.210Z,81.60
2023-05-10T11:11:08.016Z,86.70
2023-05-10T11:13:46.765Z,84.90
2023-05-10T11:16:44.116Z,79.40
2023-05-10T11:19:17.590Z,78.70
2023-05-10T11:22:11.004Z,73.50
2023-05-10T11:24:45.540Z,75.00
2023-05-10T11:27:21.532Z,80.00
2023-05-10T11:30:05.159Z,73.30
2023-05-10T11:32:43.242Z,69.20
2023-05-10T11:35:21.877Z,69.60
2023-05-10T11:37:50.845Z,68.00
2023-05-10T11:40:21.100Z,67.90
2023-05-10T11:42:51.750Z,67.40
2023-05-10T11:45:20.771Z,90.10
2023-05-10T11:47:56.649Z,69.60
2023-05-10T11:50:32.228Z,70.10
2023-05-10T11:53:03.926Z,70.80
2023-05-10T11:55:39.739Z,72.40
2023-05-10T11:58:11.473Z,75.70
2023-05-10T12:00:50.641Z,72.20
2023-05-10T12:03:20.083Z,72.70
2023-05-10T12:06:13.046Z,74.20
2023-05-10T12:08:49.308Z,75.00
2023-05-10T12:11:20.460Z,72.30
2023-05-10T12:13:51.009Z,70.90
2023-05-10T12:16:24.421Z,74.10
2023-05-10T12:18:54.581Z,75.50
2023-05-10T12:21:35.130Z,75.00
2023-05-10T12:24:13.453Z,70.70
2023-05-10T12:29:33.306Z,70.30
2023-05-10T12:32:02.696Z,70.40
2023-05-10T12:34:37.266Z,70.20
2023-05-10T12:37:13.603Z,76.30
2023-05-10T12:39:45.795Z,73.40
2023-05-10T12:42:15.634Z,74.50
2023-05-10T12:44:45.590Z,70.10
2023-05-10T12:47:22.969Z,68.60
2023-05-10T12:49:55.594Z,68.30
2023-05-10T12:52:34.780Z,70.70
2023-05-10T12:55:15.249Z,69.40
2023-05-10T12:57:54.390Z,72.60
2023-05-10T13:00:27.781Z,68.10
2023-05-10T13:03:02.751Z,71.80
2023-05-10T13:05:37.888Z,72.70
2023-05-10T13:08:15.573Z,77.70
2023-05-10T13:10:51.183Z,73.70
2023-05-10T13:13:39.010Z,72.50
2023-05-10T13:16:10.756Z,75.80
2023-05-10T13:18:43.285Z,73.40
2023-05-10T13:21:12.478Z,73.80
2023-05-10T13:23:43.722Z,75.00
2023-05-10T13:26:16.456Z,74.30
2023-05-10T13:28:50.842Z,75.60
2023-05-10T13:31:21.794Z,72.10
2023-05-10T13:33:54.367Z,70.20
2023-05-10T13:36:26.968Z,71.80
2023-05-10T13:39:02.571Z,68.80
2023-05-10T13:41:46.641Z,73.70
2023-05-10T13:44:16.942Z,71.80
2023-05-10T13:46:55.098Z,67.70
2023-05-10T13:49:26.369Z,63.40
2023-05-10T13:51:57.459Z,66.00
2023-05-10T13:54:35.632Z,64.70
2023-05-10T13:57:12.380Z,63.60
2023-05-10T13:59:43.388Z,64.70
2023-05-10T14:02:14.125Z,63.40
2023-05-10T14:04:44.945Z,61.80
2023-05-10T14:07:16.552Z,62.20
2023-05-10T14:09:49.042Z,65.10
2023-05-10T14:12:19.980Z,67.60
2023-05-10T14:14:55.663Z,64.70
2023-05-10T14:17:54.835Z,64.50
2023-05-10T14:20:26.195Z,64.70
2023-05-10T14:22:58.197Z,59.30
2023-05-10T14:25:34.953Z,60.10
2023-05-10T14:28:32.990Z,64.90
2023-05-10T14:31:05.936Z,67.30
2023-05-10T14:33:36.413Z,59.00
2023-05-10T14:36:05.918Z,60.60
2023-05-10T14:38:34.766Z,56.10
2023-05-10T14:41:16.264Z,55.00
2023-05-10T14:43:49.806Z,57.00
2023-05-10T14:46:23.717Z,58.10
2023-05-10T14:48:58.288Z,53.50
2023-05-10T14:51:31.020Z,54.60
2023-05-10T14:53:59.761Z,54.90
2023-05-10T14:56:33.606Z,56.00
2023-05-10T14:59:12.440Z,58.00
2023-05-10T15:01:51.029Z,56.60
2023-05-10T15:04:20.247Z,54.10
2023-05-10T15:06:49.386Z,53.80
2023-05-10T15:09:18.265Z,54.20
2023-05-10T15:11:52.618Z,57.70
2023-05-10T15:14:24.784Z,54.90
2023-05-10T15:16:56.422Z,57.30
2023-05-10T15:19:25.090Z,57.30
2023-05-10T15:21:56.573Z,53.20
2023-05-10T15:24:32.071Z,60.80
2023-05-10T15:27:05.681Z,57.00
2023-05-10T15:29:35.377Z,74.10
2023-05-10T15:32:05.100Z,51.80
2023-05-10T15:34:35.125Z,57.10
2023-05-10T15:37:13.450Z,51.40
2023-05-10T15:39:42.311Z,53.60
2023-05-10T15:42:13.663Z,52.60
2023-05-10T15:44:51.364Z,74.00
2023-05-10T15:47:24.909Z,51.40
2023-05-10T15:49:56.824Z,52.20
2023-05-10T15:52:27.470Z,52.00
2023-05-10T15:54:56.145Z,52.50
2023-05-10T15:57:31.870Z,51.50
2023-05-10T16:00:00.545Z,52.10
2023-05-10T16:02:29.489Z,51.70
2023-05-10T16:05:05.056Z,52.40
2023-05-10T16:07:40.521Z,50.90
2023-05-10T16:10:11.728Z,50.50
2023-05-10T16:12:42.202Z,54.50
2023-05-10T16:15:14.046Z,51.60
2023-05-10T16:17:43.398Z,54.80
2023-05-10T16:20:12.820Z,52.50
2023-05-10T16:22:47.526Z,50.30
2023-05-10T16:25:18.282Z,50.20
2023-05-10T16:27:59.442Z,48.40
2023-05-10T16:30:40.464Z,47.30
2023-05-10T16:33:12.975Z,51.70
2023-05-10T16:35:46.320Z,50.00
2023-05-10T16:38:17.434Z,49.90
2023-05-10T16:40:50.777Z,52.20
2023-05-10T16:43:31.470Z,54.90
2023-05-10T16:46:19.067Z,54.30
2023-05-10T16:48:48.748Z,54.10
2023-05-10T16:51:23.772Z,54.40
2023-05-10T16:53:53.890Z,54.50
2023-05-10T16:56:32.701Z,51.70
2023-05-10T16:59:04.045Z,50.90
2023-05-10T17:01:35.357Z,52.20
2023-05-10T17:04:10.354Z,50.00
2023-05-10T17:06:43.342Z,50.30
2023-05-10T17:09:12.450Z,50.90
2023-05-10T17:11:51.242Z,49.80
2023-05-10T17:14:37.122Z,48.90
2023-05-10T17:17:08.410Z,51.50
2023-05-10T17:19:49.213Z,50.30
2023-05-10T17:22:22.014Z,51.10
2023-05-10T17:24:51.334Z,47.40
2023-05-10T17:27:20.219Z,46.60
2023-05-10T17:29:50.422Z,47.70
2023-05-10T17:32:21.280Z,48.80
2023-05-10T17:34:53.520Z,48.70
2023-05-10T17:37:28.792Z,45.50
2023-05-10T17:40:01.823Z,46.20
2023-05-10T17:42:35.940Z,50.10
2023-05-10T17:45:07.764Z,49.30
2023-05-10T17:47:38.017Z,48.80
2023-05-10T17:50:08.809Z,46.90
2023-05-10T17:52:38.596Z,51.00
2023-05-10T17:55:12.077Z,51.30
2023-05-10T17:57:45.499Z,51.90
2023-05-10T18:00:24.688Z,18.80
2023-05-10T18:02:56.666Z,18.50
2023-05-10T18:05:28.303Z,17.80
2023-05-10T18:07:57.658Z,14.20
2023-05-10T18:10:26.614Z,15.40
2023-05-10T18:13:07.356Z,16.20
2023-05-10T18:15:44.523Z,16.70
2023-05-10T18:18:16.398Z,16.70
2023-05-10T18:20:48.262Z,18.30
2023-05-10T18:23:24.512Z,15.90
2023-05-10T18:26:00.107Z,15.40
2023-05-10T18:28:36.426Z,14.60
2023-05-10T18:31:13.070Z,15.40
2023-05-10T18:33:45.419Z,15.70
2023-05-10T18:36:23.461Z,16.90
2023-05-10T18:38:56.925Z,18.10
2023-05-10T18:41:35.179Z,18.60
2023-05-10T18:44:13.437Z,15.90
2023-05-10T18:47:01.589Z,19.30
2023-05-10T18:49:33.406Z,16.90
2023-05-10T18:52:13.822Z,17.70
2023-05-10T18:54:45.206Z,17.40
2023-05-10T18:57:18.074Z,16.40
2023-05-10T18:59:52.438Z,15.80
2023-05-10T19:02:27.638Z,19.90
2023-05-10T19:05:06.667Z,19.60
2023-05-10T19:07:44.254Z,14.30
2023-05-10T19:10:16.622Z,15.30
2023-05-10T19:12:47.440Z,16.90
2023-05-10T19:15:21.600Z,15.90
2023-05-10T19:17:53.773Z,15.70
2023-05-10T19:20:26.580Z,16.40
2023-05-10T19:23:09.078Z,15.80
2023-05-10T19:25:47.421Z,13.70
2023-05-10T19:28:34.892Z,15.60
2023-05-10T19:31:13.303Z,17.40
2023-05-10T19:33:53.022Z,17.70
2023-05-10T19:36:22.859Z,15.50
2023-05-10T19:38:55.437Z,16.80
2023-05-10T19:41:28.856Z,19.00
2023-05-10T19:44:03.403Z,18.90
2023-05-10T19:46:32.459Z,19.00
2023-05-10T19:49:07.221Z,18.60
2023-05-10T19:51:36.960Z,19.10
2023-05-10T19:54:05.444Z,20.30
2023-05-10T19:56:37.278Z,21.60
2023-05-10T19:59:10.076Z,23.70
2023-05-10T20:01:45.935Z,22.10
2023-05-10T20:04:27.075Z,25.50
2023-05-10T20:07:01.081Z,21.60
2023-05-10T20:09:32.099Z,22.90
2023-05-10T20:12:00.820Z,25.90
2023-05-10T20:14:31.266Z,26.40
2023-05-10T20:17:12.841Z,27.60
2023-05-10T20:19:46.612Z,27.10
2023-05-10T20:22:17.048Z,31.00
2023-05-10T20:24:48.574Z,29.10
2023-05-10T20:27:20.118Z,32.90
2023-05-10T20:29:48.662Z,35.80
2023-05-10T20:32:17.129Z,38.10
2023-05-10T20:34:47.017Z,40.50
2023-05-10T20:37:15.426Z,40.20
2023-05-10T20:39:50.284Z,45.40
2023-05-10T20:42:19.017Z,43.90
2023-05-10T20:44:47.512Z,46.40
2023-05-10T20:47:18.738Z,49.40
2023-05-10T20:49:53.668Z,53.50
2023-05-10T20:52:24.459Z,47.10
2023-05-10T20:54:55.747Z,50.30
2023-05-10T20:57:24.305Z,51.50
2023-05-10T20:59:54.769Z,53.30
2023-05-10T21:02:25.453Z,55.20
2023-05-10T21:04:58.235Z,55.50
2023-05-10T21:07:28.749Z,57.70
2023-05-10T21:09:57.385Z,54.40
2023-05-10T21:12:25.792Z,55.30
2023-05-10T21:14:54.318Z,56.70
2023-05-10T21:17:24.740Z,55.30
2023-05-10T21:19:56.674Z,57.20
2023-05-10T21:22:25.255Z,55.10
2023-05-10T21:24:56.725Z,53.80
2023-05-10T21:27:25.303Z,55.90
2023-05-10T21:29:53.747Z,56.70
2023-05-10T21:32:23.382Z,53.60
2023-05-10T21:34:51.825Z,50.30
2023-05-10T21:37:23.273Z,51.70
2023-05-10T21:39:52.933Z,49.60
2023-05-10T21:42:21.492Z,47.60
2023-05-10T21:44:50.025Z,49.00
2023-05-10T21:47:18.478Z,49.90
2023-05-10T21:49:46.760Z,47.70
2023-05-10T21:52:15.083Z,48.90
2023-05-10T21:54:45.032Z,45.80
2023-05-10T21:57:16.013Z,48.90
2023-05-10T21:59:44.640Z,45.70
2023-05-10T22:02:12.930Z,42.50
2023-05-10T22:04:41.448Z,46.20
2023-05-10T22:07:09.896Z,44.70
2023-05-10T22:09:38.260Z,45.00
2023-05-10T22:12:08.501Z,43.30
2023-05-10T22:14:37.070Z,46.10
2023-05-10T22:17:05.871Z,43.30
2023-05-10T22:19:34.314Z,44.50
2023-05-10T22:22:04.624Z,43.90
2023-05-10T22:24:33.073Z,42.00
2023-05-10T22:27:04.819Z,61.20
2023-05-10T22:29:34.706Z,41.30
2023-05-10T22:32:05.823Z,43.20
2023-05-10T22:34:35.585Z,41.70
2023-05-10T22:37:04.445Z,41.20
2023-05-10T22:39:34.364Z,42.50
2023-05-10T22:42:02.740Z,41.90
2023-05-10T22:44:31.569Z,41.20
2023-05-10T22:47:04.063Z,38.00
2023-05-10T22:49:32.441Z,41.40
2023-05-10T22:52:00.812Z,43.80
2023-05-10T22:54:29.124Z,42.70
2023-05-10T22:56:57.988Z,44.40
2023-05-10T22:59:29.807Z,42.20
2023-05-10T23:01:58.493Z,41.90
2023-05-10T23:04:28.333Z,43.20
2023-05-10T23:06:56.784Z,43.10
2023-05-10T23:09:25.295Z,44.20
2023-05-10T23:11:56.289Z,41.70
2023-05-10T23:14:24.855Z,45.60
2023-05-10T23:16:53.228Z,47.20
2023-05-10T23:19:28.841Z,45.50
2023-05-10T23:21:59.472Z,49.10
2023-05-10T23:24:27.989Z,47.80
2023-05-10T23:26:58.386Z,55.30
2023-05-10T23:29:26.871Z,51.50
2023-05-10T23:31:55.434Z,55.40
2023-05-10T23:34:23.878Z,52.90
2023-05-10T23:36:52.505Z,54.90
2023-05-10T23:39:22.255Z,55.00
2023-05-10T23:41:53.027Z,58.10
2023-05-10T23:44:21.447Z,57.80
2023-05-10T23:46:49.950Z,60.00
2023-05-10T23:49:18.708Z,56.90
2023-05-10T23:51:47.275Z,57.80
2023-05-10T23:54:18.231Z,59.70
2023-05-10T23:56:51.670Z,58.80
2023-05-10T23:59:20.328Z,59.10
